M I D A S
Marine Information and Data Acquisition System
Tripno 1648 of the Zeeleeuw from 2009-02-27 08:53:17 to 2009-02-27 17:11:21
Back to CruiseResearch ActivitiesStationsMapUnderway DataData graphs

EquipmentUnitsComment
TimeDGPSUTC
LatitudeDGPSDM.mWGS84
LongitudeDGPSDM.mWGS84
HeadingGyrodeg 
SOGDGPSknotsSpeed over ground
COGDGPSdegCourse over ground
DepthEcho soundermeters200 kHz
Missing or incorrect values are displayed as -999
Navigation data collected by the RV Zeeleeuw from 2009-02-27 08:38:06 to 2009-02-27 17:10:25
Time Latitude Longitude Heading SOG COG Depth
2009-02-27 08:39:11 51°13.674 2°55.925 114.5 2.2 297 -999
2009-02-27 08:40:11 51°13.697 2°55.852 105.4 3.4 289 -999
2009-02-27 08:41:11 51°13.701 2°55.773 81 2.6 266 -999
2009-02-27 08:42:10 51°13.708 2°55.758 34.7 1.3 20 5
2009-02-27 08:43:10 51°13.707 2°55.754 2.6 0.4 319 9.6
2009-02-27 08:44:10 51°13.745 2°55.716 328.3 5.8 328 9.1
2009-02-27 08:45:10 51°13.85 2°55.623 334.9 7.8 334 8.2
2009-02-27 08:46:11 51°13.973 2°55.532 336.5 8.1 335 -999
2009-02-27 08:47:10 51°14.097 2°55.44 336 8.6 335 8.3
2009-02-27 08:48:10 51°14.224 2°55.323 326 9 323 8.3
2009-02-27 08:49:10 51°14.336 2°55.155 312.6 9.6 312 8.5
2009-02-27 08:50:10 51°14.44 2°54.943 309.5 10.7 313 8.8
2009-02-27 08:51:10 51°14.595 2°54.779 337 11.6 331 8.2
2009-02-27 08:52:10 51°14.763 2°54.618 334.4 11.8 329 8.2
2009-02-27 08:53:10 51°14.933 2°54.461 335.4 11.8 331 8.8
2009-02-27 08:54:10 51°15.106 2°54.307 334 11.8 330 9.7
2009-02-27 08:55:10 51°15.277 2°54.154 335 11.8 330 9.9
2009-02-27 08:56:10 51°15.445 2°53.99 334.2 11.7 328 9.7
2009-02-27 08:57:10 51°15.611 2°53.827 334.6 11.8 329 9.2
2009-02-27 08:58:10 51°15.781 2°53.67 336.2 11.8 330 9.6
2009-02-27 08:59:10 51°15.951 2°53.51 334.2 11.9 328 9.9
2009-02-27 09:00:10 51°16.122 2°53.356 337.9 11.7 332 10.3
2009-02-27 09:01:10 51°16.296 2°53.212 339.3 11.7 334 10.5
2009-02-27 09:02:10 51°16.473 2°53.088 341.9 11.7 337 10.3
2009-02-27 09:03:10 51°16.653 2°52.972 341.9 11.6 337 10.1
2009-02-27 09:04:10 51°16.827 2°52.851 340.8 11.1 336 8
2009-02-27 09:05:10 51°16.992 2°52.723 337.7 11.1 333 8.4
2009-02-27 09:06:10 51°17.155 2°52.594 340.4 10.9 335 8.2
2009-02-27 09:07:10 51°17.32 2°52.472 341.7 11.1 336 8.9
2009-02-27 09:08:10 51°17.484 2°52.336 336.7 11.2 331 9.1
2009-02-27 09:09:10 51°17.642 2°52.18 334 11.1 327 9.1
2009-02-27 09:10:10 51°17.795 2°52.013 330.5 11.2 324 9
2009-02-27 09:11:10 51°17.95 2°51.85 334 11.2 328 9.1
2009-02-27 09:12:10 51°18.105 2°51.684 333.5 11.3 327 9.9
2009-02-27 09:13:10 51°18.258 2°51.504 332.2 11.4 324 10.8
2009-02-27 09:14:10 51°18.411 2°51.326 334.1 11.5 323 11.8
2009-02-27 09:15:10 51°18.562 2°51.154 334.2 9.6 333 12.7
2009-02-27 09:16:10 51°18.657 2°51.166 13 6.5 355 13.3
2009-02-27 09:17:10 51°18.785 2°51.038 334.5 10.7 320 13.6
2009-02-27 09:18:10 51°18.932 2°50.845 330.4 11.9 320 13.8
2009-02-27 09:19:10 51°19.083 2°50.641 329.4 11.9 319 13.5
2009-02-27 09:20:10 51°19.235 2°50.436 328.6 11.9 322 11.9
2009-02-27 09:21:10 51°19.391 2°50.239 330.9 12 321 10.7
2009-02-27 09:22:10 51°19.55 2°50.048 330.9 12.1 323 11.5
2009-02-27 09:23:10 51°19.712 2°49.862 333.5 12.1 326 13.5
2009-02-27 09:24:10 51°19.878 2°49.679 333.9 12.2 326 15.8
2009-02-27 09:25:10 51°20.047 2°49.502 335.9 12.2 327 18
2009-02-27 09:26:10 51°20.216 2°49.323 334.7 12.1 326 20.8
2009-02-27 09:27:10 51°20.382 2°49.143 334.9 12.1 325 21.9
2009-02-27 09:28:10 51°20.552 2°48.972 338.7 12 330 22.2
2009-02-27 09:29:10 51°20.725 2°48.806 338.4 12.2 329 21.7
2009-02-27 09:30:10 51°20.9 2°48.644 339.7 12.2 333 20.3
2009-02-27 09:31:10 51°21.08 2°48.502 342.3 12 334 19.5
2009-02-27 09:32:10 51°21.26 2°48.36 341.9 12.2 332 20.6
2009-02-27 09:33:10 51°21.44 2°48.212 340.5 12.2 332 22
2009-02-27 09:34:10 51°21.617 2°48.06 341.7 12.2 327 22.7
2009-02-27 09:35:10 51°21.795 2°47.906 340.7 12.3 331 23.3
2009-02-27 09:36:10 51°21.976 2°47.758 341.9 12.1 333 22.7
2009-02-27 09:37:10 51°22.155 2°47.613 340.5 11.7 334 22.8
2009-02-27 09:38:10 51°22.33 2°47.475 342 11.7 333 18.8
2009-02-27 09:39:10 51°22.5 2°47.334 341.9 11.4 333 18.4
2009-02-27 09:40:10 51°22.671 2°47.19 340.4 11.7 330 15.4
2009-02-27 09:41:10 51°22.839 2°47.037 342.1 11.6 330 19.8
2009-02-27 09:42:10 51°23.01 2°46.888 340.4 11.7 331 21.2
2009-02-27 09:43:10 51°23.18 2°46.736 341.9 11.7 331 20.2
2009-02-27 09:44:10 51°23.334 2°46.542 322.5 12.2 311 23.1
2009-02-27 09:45:10 51°23.455 2°46.277 311.5 12.5 300 25.8
2009-02-27 09:46:10 51°23.541 2°45.968 299.8 12.9 291 27
2009-02-27 09:47:10 51°23.619 2°45.648 302.6 13 293 26.6
2009-02-27 09:48:10 51°23.73 2°45.362 318.7 12.5 309 26.7
2009-02-27 09:49:10 51°23.893 2°45.201 351.5 11.2 347 26
2009-02-27 09:50:10 51°24.071 2°45.21 19.7 10.5 18 26.3
2009-02-27 09:51:11 51°24.229 2°45.337 37.7 10.4 35 26.4
2009-02-27 09:52:10 51°24.359 2°45.513 46.5 10.4 45 26
2009-02-27 09:53:10 51°24.471 2°45.723 54.5 10.5 51 25.8
2009-02-27 09:54:10 51°24.571 2°45.951 57.1 10.3 55 25
2009-02-27 09:55:10 51°24.669 2°46.185 57.4 10.6 54 24.4
2009-02-27 09:56:11 51°24.77 2°46.417 55.5 10.5 58 25.1
2009-02-27 09:57:10 51°24.869 2°46.642 56.6 10.4 57 24.6
2009-02-27 09:58:10 51°24.967 2°46.876 59.1 10.6 58 24.7
2009-02-27 09:59:10 51°25.061 2°47.111 57.9 10.5 57 24.7
2009-02-27 10:00:10 51°25.159 2°47.34 57.4 10.5 54 24.9
2009-02-27 10:01:10 51°25.258 2°47.572 56.9 10.6 54 26.7
2009-02-27 10:02:10 51°25.354 2°47.808 59.3 10.6 58 25.8
2009-02-27 10:03:10 51°25.447 2°48.045 59.5 10.4 56 26.9
2009-02-27 10:04:10 51°25.536 2°48.286 61.9 10.4 61 24.5
2009-02-27 10:05:11 51°25.618 2°48.534 63.6 10.2 63 23.9
2009-02-27 10:06:10 51°25.696 2°48.772 61.1 10.4 65 24
2009-02-27 10:07:11 51°25.778 2°49.022 61.6 10.7 67 24
2009-02-27 10:08:10 51°25.86 2°49.262 61.4 10.3 63 23.3
2009-02-27 10:09:11 51°25.94 2°49.512 63.4 10.3 63 22.9
2009-02-27 10:10:10 51°26.014 2°49.756 63.7 10.4 64 23.2
2009-02-27 10:11:10 51°26.095 2°50.001 61.3 10.5 65 23.2
2009-02-27 10:12:10 51°26.171 2°50.251 62.7 10.5 67 23
2009-02-27 10:13:10 51°26.248 2°50.504 62.3 10.7 66 22.8
2009-02-27 10:14:10 51°26.328 2°50.755 62.9 10.6 63 23.3
2009-02-27 10:15:10 51°26.414 2°51.001 58.1 10.5 57 23.7
2009-02-27 10:16:10 51°26.505 2°51.243 58 10.7 58 26.8
2009-02-27 10:17:10 51°26.594 2°51.487 59.4 10.6 62 25
2009-02-27 10:18:11 51°26.687 2°51.73 58.1 10.6 57 25.1
2009-02-27 10:19:10 51°26.773 2°51.971 60.7 10.5 61 25.4
2009-02-27 10:20:11 51°26.861 2°52.217 59.5 10.5 62 26.5
2009-02-27 10:21:10 51°26.947 2°52.453 58.8 10.4 58 26.6
2009-02-27 10:22:10 51°27.036 2°52.695 59.5 10.7 62 26.7
2009-02-27 10:23:10 51°27.12 2°52.944 60.8 10.4 58 25.3
2009-02-27 10:24:10 51°27.205 2°53.193 59.1 10.5 63 25.1
2009-02-27 10:25:10 51°27.29 2°53.438 58.3 10.4 61 27.1
2009-02-27 10:26:10 51°27.377 2°53.679 58.7 10.5 60 26.2
2009-02-27 10:27:10 51°27.463 2°53.922 59.8 10.7 58 23.7
2009-02-27 10:28:09 51°27.55 2°54.16 59.1 10.4 55 26
2009-02-27 10:29:10 51°27.64 2°54.403 57.6 10.5 61 26.5
2009-02-27 10:30:10 51°27.724 2°54.644 60.2 10.4 61 27
2009-02-27 10:31:10 51°27.807 2°54.887 59.3 10.4 64 27.7
2009-02-27 10:32:10 51°27.892 2°55.126 59.6 10.3 62 26.6
2009-02-27 10:33:10 51°27.982 2°55.361 57.3 10.1 58 27.7
2009-02-27 10:34:11 51°28.077 2°55.596 58.2 10.4 58 27.8
2009-02-27 10:35:10 51°28.168 2°55.828 57.9 10.5 57 26.9
2009-02-27 10:36:10 51°28.261 2°56.059 58.2 10.5 55 26.8
2009-02-27 10:37:10 51°28.355 2°56.294 57.3 10.6 56 26.6
2009-02-27 10:38:10 51°28.451 2°56.526 56.7 10.6 56 27.2
2009-02-27 10:39:10 51°28.545 2°56.759 56.1 10.4 56 26.7
2009-02-27 10:40:10 51°28.643 2°56.991 55.9 10.6 58 27.3
2009-02-27 10:41:10 51°28.737 2°57.227 57.8 10.5 56 27.9
2009-02-27 10:42:10 51°28.831 2°57.463 57.8 10.5 56 27.8
2009-02-27 10:43:10 51°28.923 2°57.701 58.9 10.7 55 27.3
2009-02-27 10:44:09 51°29.016 2°57.934 57 10.6 62 27.4
2009-02-27 10:45:10 51°29.111 2°58.177 57.4 10.6 56 27
2009-02-27 10:46:10 51°29.206 2°58.417 57.8 10.7 57 27.3
2009-02-27 10:47:10 51°29.298 2°58.658 57.6 10.7 58 27.5
2009-02-27 10:48:10 51°29.393 2°58.901 57.6 10.7 57 27.6
2009-02-27 10:49:10 51°29.489 2°59.145 57.8 11 55 28
2009-02-27 10:50:10 51°29.585 2°59.391 57 10.9 57 28
2009-02-27 10:51:10 51°29.679 2°59.634 56.9 10.7 61 27.1
2009-02-27 10:52:10 51°29.771 2°59.882 58.2 10.9 61 27.9
2009-02-27 10:53:10 51°29.863 3°0.13 57.6 10.9 61 27.4
2009-02-27 10:54:10 51°29.957 3°0.377 56.7 10.8 63 27.7
2009-02-27 10:55:10 51°30.051 3°0.623 56.3 10.7 58 28.2
2009-02-27 10:56:10 51°30.147 3°0.869 57.1 10.8 57 28.1
2009-02-27 10:57:10 51°30.24 3°1.116 57.4 10.9 58 28.4
2009-02-27 10:58:11 51°30.334 3°1.37 56.3 10.8 62 28.2
2009-02-27 10:59:10 51°30.425 3°1.611 57.4 10.7 58 28.3
2009-02-27 11:00:10 51°30.52 3°1.858 57.5 11 58 28.2
2009-02-27 11:01:10 51°30.616 3°2.101 57 10.7 60 28.2
2009-02-27 11:02:10 51°30.712 3°2.346 57 11.1 58 28.1
2009-02-27 11:03:10 51°30.807 3°2.595 58.2 11 54 28.1
2009-02-27 11:04:10 51°30.901 3°2.843 56.1 10.9 60 28.1
2009-02-27 11:05:10 51°30.996 3°3.089 57.7 10.9 59 28.3
2009-02-27 11:06:10 51°31.09 3°3.338 57.8 10.7 59 28.8
2009-02-27 11:07:10 51°31.185 3°3.59 59.6 11 54 29
2009-02-27 11:08:10 51°31.282 3°3.84 57.4 11 54 28.8
2009-02-27 11:09:10 51°31.379 3°4.092 58.3 11.3 58 28.5
2009-02-27 11:10:11 51°31.477 3°4.348 56.5 11.1 60 28.3
2009-02-27 11:11:11 51°31.572 3°4.599 57.3 10.8 58 28.7
2009-02-27 11:12:10 51°31.67 3°4.844 56.8 11.1 57 29
2009-02-27 11:13:10 51°31.77 3°5.091 54.6 11 58 28.7
2009-02-27 11:14:10 51°31.872 3°5.337 57 11.2 52 28.6
2009-02-27 11:15:10 51°31.972 3°5.589 56.8 11.2 58 29
2009-02-27 11:16:11 51°32.073 3°5.843 56.8 11 56 29.2
2009-02-27 11:17:11 51°32.175 3°6.094 55.1 11.2 59 30.5
2009-02-27 11:18:10 51°32.275 3°6.34 56.2 11.2 60 30.8
2009-02-27 11:19:10 51°32.415 3°6.5 16 10.5 5 33.2
2009-02-27 11:20:10 51°32.553 3°6.321 314.4 11.9 308 31.9
2009-02-27 11:21:10 51°32.677 3°6.067 311.8 12.1 306 28.9
2009-02-27 11:22:10 51°32.782 3°5.789 305.1 12.3 299 30.2
2009-02-27 11:23:11 51°32.882 3°5.501 304.7 12.2 297 30.8
2009-02-27 11:24:11 51°32.982 3°5.22 306.5 12.2 302 33
2009-02-27 11:25:11 51°33.087 3°4.943 307.3 12.2 299 30.5
2009-02-27 11:26:11 51°33.189 3°4.665 304.9 12.1 301 27.6
2009-02-27 11:27:10 51°33.277 3°4.382 300.6 11.9 295 23.8
2009-02-27 11:28:10 51°33.338 3°4.077 291.9 12 284 21.9
2009-02-27 11:29:11 51°33.36 3°3.748 278.8 12.3 274 19.8
2009-02-27 11:30:11 51°33.336 3°3.423 261.9 12.4 249 17.5
2009-02-27 11:31:11 51°33.234 3°3.125 241.7 12.9 237 21.2
2009-02-27 11:32:11 51°33.123 3°2.828 244 12.9 239 20.1
2009-02-27 11:33:11 51°33.009 3°2.532 242.3 13 238 21.4
2009-02-27 11:34:11 51°32.9 3°2.23 245.4 13.1 240 21.6
2009-02-27 11:35:10 51°32.799 3°1.927 246.9 12.9 242 23
2009-02-27 11:36:10 51°32.698 3°1.617 247 13.1 243 25.1
2009-02-27 11:37:10 51°32.595 3°1.309 245.1 13 241 24.7
2009-02-27 11:38:10 51°32.491 3°1.003 246 13.1 241 25.6
2009-02-27 11:39:10 51°32.387 3°0.696 245.5 13 244 26.7
2009-02-27 11:40:10 51°32.286 3°0.387 247.4 13.1 244 27.9
2009-02-27 11:41:10 51°32.186 3°0.074 246.7 13.1 244 29.7
2009-02-27 11:42:10 51°32.085 2°59.763 245.4 13.1 241 30.4
2009-02-27 11:43:10 51°31.979 2°59.456 243.1 13.1 239 30.6
2009-02-27 11:44:10 51°31.868 2°59.152 244.9 13.2 239 30.9
2009-02-27 11:45:10 51°31.765 2°58.84 245.8 13.1 242 30.6
2009-02-27 11:46:10 51°31.66 2°58.529 243.1 13.2 242 31.3
2009-02-27 11:47:11 51°31.553 2°58.214 244.7 13.2 242 31.8
2009-02-27 11:48:10 51°31.451 2°57.908 244.5 13.3 242 32.7
2009-02-27 11:49:10 51°31.344 2°57.599 242.5 13.3 238 34.3
2009-02-27 11:50:10 51°31.238 2°57.292 242.9 13.1 242 32
2009-02-27 11:51:10 51°31.139 2°56.981 245.5 13 246 33.3
2009-02-27 11:52:10 51°31.04 2°56.67 244.8 13 243 34.4
2009-02-27 11:53:10 51°30.941 2°56.359 245.3 13.1 242 34
2009-02-27 11:54:10 51°30.84 2°56.054 241.1 13 240 36
2009-02-27 11:55:10 51°30.73 2°55.76 239.1 12.8 240 38.3
2009-02-27 11:56:10 51°30.621 2°55.466 241.1 12.8 237 39.1
2009-02-27 11:57:10 51°30.513 2°55.18 242.1 12.5 239 37.5
2009-02-27 11:58:10 51°30.416 2°54.889 244.7 12.4 239 35.6
2009-02-27 11:59:10 51°30.317 2°54.602 244.7 12.2 238 35.1
2009-02-27 12:00:10 51°30.219 2°54.315 243.2 12.3 240 34.1
2009-02-27 12:01:10 51°30.118 2°54.031 243.1 12.3 239 32.4
2009-02-27 12:02:10 51°30.023 2°53.748 243.1 12.2 244 33.1
2009-02-27 12:03:10 51°29.923 2°53.467 242.3 12 240 33.4
2009-02-27 12:04:10 51°29.826 2°53.185 243.7 12.1 239 33.1
2009-02-27 12:05:10 51°29.73 2°52.904 242.9 12 242 32.7
2009-02-27 12:06:10 51°29.632 2°52.624 242.7 12 241 32.7
2009-02-27 12:07:10 51°29.535 2°52.344 244 12.1 236 31.8
2009-02-27 12:08:10 51°29.438 2°52.065 243.4 11.9 239 31.5
2009-02-27 12:09:10 51°29.343 2°51.786 243.7 12 238 32
2009-02-27 12:10:10 51°29.244 2°51.511 242.9 12.1 240 29.2
2009-02-27 12:11:10 51°29.146 2°51.235 242.5 11.9 239 31.7
2009-02-27 12:12:10 51°29.047 2°50.961 241.8 11.9 239 29.6
2009-02-27 12:13:10 51°28.952 2°50.682 243.2 12 239 29.7
2009-02-27 12:14:10 51°28.854 2°50.404 243.2 11.9 239 28.4
2009-02-27 12:15:10 51°28.759 2°50.127 243 11.8 240 27.9
2009-02-27 12:16:10 51°28.664 2°49.852 241.6 11.7 242 28.9
2009-02-27 12:17:10 51°28.567 2°49.579 243 11.6 241 31.4
2009-02-27 12:18:11 51°28.47 2°49.302 243.2 11.8 240 31.2
2009-02-27 12:19:10 51°28.375 2°49.035 241.2 11.7 240 28.5
2009-02-27 12:20:10 51°28.284 2°48.761 243.5 11.7 241 28.2
2009-02-27 12:21:10 51°28.193 2°48.487 242.4 11.7 242 28
2009-02-27 12:22:10 51°28.103 2°48.21 244 11.9 242 33.3
2009-02-27 12:23:10 51°28.016 2°47.93 242.4 11.6 245 31.5
2009-02-27 12:24:10 51°27.919 2°47.658 240.3 11.7 238 32.1
2009-02-27 12:25:10 51°27.823 2°47.387 239.7 11.7 243 33.7
2009-02-27 12:26:10 51°27.727 2°47.113 240.6 11.8 242 34.4
2009-02-27 12:27:10 51°27.634 2°46.839 241.1 11.7 240 33.8
2009-02-27 12:28:10 51°27.539 2°46.567 238.4 11.7 245 33.8
2009-02-27 12:29:10 51°27.439 2°46.301 236.9 11.7 237 32.2
2009-02-27 12:30:10 51°27.338 2°46.037 238.8 11.6 241 31.6
2009-02-27 12:31:10 51°27.241 2°45.77 238.7 11.5 241 31.5
2009-02-27 12:32:10 51°27.142 2°45.506 238.3 11.6 241 30.7
2009-02-27 12:33:10 51°27.044 2°45.242 238.9 11.5 240 30.7
2009-02-27 12:34:10 51°26.945 2°44.981 237.4 11.6 238 31.4
2009-02-27 12:35:10 51°26.847 2°44.719 238.7 11.4 242 31
2009-02-27 12:36:10 51°26.749 2°44.46 237.1 11.3 236 30.3
2009-02-27 12:37:10 51°26.651 2°44.201 238 11.3 240 27.4
2009-02-27 12:38:10 51°26.553 2°43.945 238.3 11.2 235 28.8
2009-02-27 12:39:10 51°26.455 2°43.689 238.7 11.3 238 25.3
2009-02-27 12:40:10 51°26.357 2°43.437 238 11.2 236 26.6
2009-02-27 12:41:10 51°26.347 2°43.159 286.8 11.2 299 26.1
2009-02-27 12:42:10 51°26.491 2°42.949 315.3 12.1 321 30.2
2009-02-27 12:43:10 51°26.664 2°42.776 328.2 12.3 332 32.1
2009-02-27 12:44:10 51°26.848 2°42.63 329.1 12.4 333 32.4
2009-02-27 12:45:10 51°27.035 2°42.482 328.9 12.5 333 34
2009-02-27 12:46:10 51°27.22 2°42.327 328.2 12.5 333 33.2
2009-02-27 12:47:10 51°27.402 2°42.184 329.4 12.1 335 33.3
2009-02-27 12:48:10 51°27.594 2°42.145 11.4 12.2 26 33.8
2009-02-27 12:49:11 51°27.715 2°42.429 62.2 13.2 58 33
2009-02-27 12:50:10 51°27.821 2°42.738 61.7 13.6 62 34
2009-02-27 12:51:10 51°27.927 2°43.054 60.5 13.5 63 35.1
2009-02-27 12:52:10 51°28.035 2°43.367 60 13.5 61 35.1
2009-02-27 12:53:10 51°28.144 2°43.681 62.5 13.7 58 33.4
2009-02-27 12:54:10 51°28.249 2°44.001 61.8 13.5 62 30.9
2009-02-27 12:55:10 51°28.356 2°44.323 61.2 13.6 61 33.7
2009-02-27 12:56:10 51°28.463 2°44.645 61 13.7 60 32.3
2009-02-27 12:57:10 51°28.577 2°44.963 59.6 13.8 61 30.3
2009-02-27 12:58:10 51°28.69 2°45.284 60.9 13.7 62 29.3
2009-02-27 12:59:10 51°28.802 2°45.605 61 13.9 60 28.3
2009-02-27 13:00:10 51°28.911 2°45.932 62.2 13.7 62 29.5
2009-02-27 13:01:10 51°29.018 2°46.259 63.4 14.1 61 27
2009-02-27 13:02:10 51°29.129 2°46.586 61.5 14 63 28.3
2009-02-27 13:03:10 51°29.239 2°46.91 61.9 13.8 61 26.4
2009-02-27 13:04:10 51°29.35 2°47.232 61.1 13.8 61 25.5
2009-02-27 13:05:10 51°29.463 2°47.551 58.9 13.7 61 27.3
2009-02-27 13:06:10 51°29.583 2°47.867 60.6 13.9 59 26.6
2009-02-27 13:07:10 51°29.693 2°48.189 62.3 13.7 59 25.7
2009-02-27 13:08:10 51°29.801 2°48.514 62.6 14 62 26.2
2009-02-27 13:09:10 51°29.912 2°48.838 61.2 13.9 62 26.6
2009-02-27 13:10:10 51°30.024 2°49.158 61.8 13.8 59 23.6
2009-02-27 13:11:10 51°30.136 2°49.479 61.3 13.7 62 26.1
2009-02-27 13:12:10 51°30.252 2°49.795 61.2 13.8 55 22.4
2009-02-27 13:13:10 51°30.363 2°50.118 61.4 13.7 63 26.4
2009-02-27 13:14:10 51°30.476 2°50.438 60.3 13.7 62 22.2
2009-02-27 13:15:10 51°30.589 2°50.754 61.7 13.8 60 25.8
2009-02-27 13:16:10 51°30.703 2°51.072 60.1 13.7 61 25.1
2009-02-27 13:17:10 51°30.813 2°51.392 61.6 13.8 60 25.2
2009-02-27 13:18:10 51°30.924 2°51.716 61.3 14.1 64 22.1
2009-02-27 13:19:10 51°31.035 2°52.042 61.5 13.9 61 24.9
2009-02-27 13:20:10 51°31.148 2°52.365 61.8 13.9 61 25
2009-02-27 13:21:10 51°31.259 2°52.687 60.3 13.8 65 23.7
2009-02-27 13:22:10 51°31.374 2°53.009 59.5 13.8 64 23.3
2009-02-27 13:23:10 51°31.507 2°53.306 46.6 13.7 47 22.7
2009-02-27 13:24:10 51°31.693 2°53.504 24.9 13.4 26 22.8
2009-02-27 13:25:10 51°31.893 2°53.661 22.9 13.5 27 25.1
2009-02-27 13:26:10 51°32.098 2°53.798 18.7 13.2 20 21.9
2009-02-27 13:27:10 51°32.304 2°53.93 18.2 13.3 21 26.6
2009-02-27 13:28:10 51°32.508 2°54.065 20.3 13.4 23 24.3
2009-02-27 13:29:10 51°32.714 2°54.202 19.7 13.4 23 24.2
2009-02-27 13:30:10 51°32.918 2°54.345 20.4 13.5 23 27.5
2009-02-27 13:31:10 51°33.118 2°54.507 25 13.3 28 29.2
2009-02-27 13:32:10 51°33.311 2°54.691 32.1 13.5 31 28.9
2009-02-27 13:33:11 51°33.5 2°54.903 34 13.6 35 29.3
2009-02-27 13:34:10 51°33.683 2°55.109 32.5 13.7 37 30.3
2009-02-27 13:35:10 51°33.869 2°55.315 33.4 13.7 33 32.5
2009-02-27 13:36:10 51°34.059 2°55.52 33.2 13.7 34 32.9
2009-02-27 13:37:10 51°34.247 2°55.724 30.2 13.6 40 33.1
2009-02-27 13:38:10 51°34.294 2°56.042 111.2 12.3 112 34.7
2009-02-27 13:39:10 51°34.204 2°56.353 121.1 13 115 34.3
2009-02-27 13:40:10 51°34.111 2°56.667 122.4 13.2 115 31.8
2009-02-27 13:41:10 51°34.018 2°56.987 124 13.3 115 31.9
2009-02-27 13:42:10 51°33.923 2°57.3 122.1 13.1 115 30.1
2009-02-27 13:43:10 51°33.831 2°57.616 123.9 13.2 111 29.4
2009-02-27 13:44:10 51°33.733 2°57.925 123.3 12.9 119 27
2009-02-27 13:45:10 51°33.642 2°58.241 118.4 12.9 110 26.3
2009-02-27 13:46:10 51°33.683 2°58.589 71.1 13.8 64 22.7
2009-02-27 13:47:10 51°33.796 2°58.913 59.6 13.8 62 21.3
2009-02-27 13:48:10 51°33.917 2°59.228 60.1 13.9 61 23.2
2009-02-27 13:49:10 51°34.04 2°59.543 61 14 57 23.1
2009-02-27 13:50:10 51°34.153 2°59.866 62.5 13.8 61 20.6
2009-02-27 13:51:10 51°34.267 3°0.191 62.4 13.8 60 20.4
2009-02-27 13:52:10 51°34.383 3°0.512 61 13.9 59 18.8
2009-02-27 13:53:10 51°34.494 3°0.834 62.1 13.9 66 18.7
2009-02-27 13:54:10 51°34.635 3°1.11 34.6 13 29 19
2009-02-27 13:55:10 51°34.813 3°1.067 316.5 10.5 313 21.2
2009-02-27 13:56:10 51°34.93 3°0.837 305.1 11.5 311 24
2009-02-27 13:57:10 51°35.057 3°0.606 304.9 11.5 312 24.2
2009-02-27 13:58:10 51°35.186 3°0.379 305.2 11.5 311 30.5
2009-02-27 13:59:10 51°35.313 3°0.147 305.3 11.5 311 31.9
2009-02-27 14:00:10 51°35.444 2°59.918 305.6 11.7 313 33.3
2009-02-27 14:01:10 51°35.575 2°59.688 304.7 11.6 311 33.1
2009-02-27 14:02:10 51°35.697 2°59.452 300.8 11.4 307 35
2009-02-27 14:03:11 51°35.733 2°59.194 254.5 9.9 255 34.5
2009-02-27 14:04:10 51°35.686 2°58.936 250 10.3 255 32.2
2009-02-27 14:05:10 51°35.614 2°58.694 238.5 10 238 34.9
2009-02-27 14:06:10 51°35.527 2°58.463 236.7 10.2 238 38.3
2009-02-27 14:07:10 51°35.435 2°58.233 237.4 10.1 240 35.1
2009-02-27 14:08:10 51°35.345 2°58.003 237.5 10.1 237 36.5
2009-02-27 14:09:10 51°35.258 2°57.77 239.5 10.2 237 36.7
2009-02-27 14:10:10 51°35.172 2°57.532 239.7 10.3 236 36.9
2009-02-27 14:11:10 51°35.083 2°57.299 238.2 10.3 236 36.9
2009-02-27 14:12:10 51°34.994 2°57.065 238.5 10.2 240 36.2
2009-02-27 14:13:10 51°34.911 2°56.826 240.8 10.2 241 36
2009-02-27 14:14:10 51°34.826 2°56.59 238.7 10.2 239 36
2009-02-27 14:15:10 51°34.736 2°56.353 240 10.1 239 36.5
2009-02-27 14:16:10 51°34.653 2°56.114 239.7 10.2 240 35.2
2009-02-27 14:17:10 51°34.567 2°55.879 239.2 10.2 241 35.5
2009-02-27 14:18:10 51°34.484 2°55.643 239.7 10.1 246 33
2009-02-27 14:19:10 51°34.401 2°55.408 239.4 10.2 236 33.7
2009-02-27 14:20:10 51°34.321 2°55.175 240.6 10 238 32.9
2009-02-27 14:21:10 51°34.241 2°54.938 240.2 10.1 237 31.8
2009-02-27 14:22:10 51°34.159 2°54.704 239.8 9.9 236 31.3
2009-02-27 14:23:10 51°34.076 2°54.474 239.4 9.9 239 32.8
2009-02-27 14:24:10 51°33.996 2°54.238 240.6 10 242 33.5
2009-02-27 14:25:10 51°33.914 2°54.005 237.7 10.1 241 33.4
2009-02-27 14:26:10 51°33.829 2°53.773 238.1 10.1 244 33.5
2009-02-27 14:27:10 51°33.746 2°53.538 240.2 10.1 239 34.2
2009-02-27 14:28:10 51°33.663 2°53.304 239 10.2 246 33.8
2009-02-27 14:29:10 51°33.583 2°53.066 239.1 10 242 32.7
2009-02-27 14:30:10 51°33.502 2°52.826 240.4 10.2 240 31.8
2009-02-27 14:31:10 51°33.419 2°52.586 239.5 10.3 243 34.4
2009-02-27 14:32:10 51°33.334 2°52.346 239.5 10.3 239 30.6
2009-02-27 14:33:10 51°33.252 2°52.105 240 10.2 239 31.1
2009-02-27 14:34:10 51°33.167 2°51.865 238.5 10.4 240 35.3
2009-02-27 14:35:10 51°33.086 2°51.623 239.1 10.4 243 35.2
2009-02-27 14:36:10 51°33.002 2°51.381 238.8 10.3 246 34.2
2009-02-27 14:37:10 51°32.924 2°51.136 239.4 10.3 242 36.3
2009-02-27 14:38:10 51°32.844 2°50.892 238.9 10.3 242 34
2009-02-27 14:39:10 51°32.76 2°50.648 240.9 10.5 241 35.4
2009-02-27 14:40:10 51°32.679 2°50.4 239.5 10.4 243 35
2009-02-27 14:41:10 51°32.598 2°50.154 238.4 10.5 242 33.7
2009-02-27 14:42:10 51°32.515 2°49.911 238.3 10.3 243 33.6
2009-02-27 14:43:10 51°32.435 2°49.664 240.1 10.4 243 33.5
2009-02-27 14:44:10 51°32.351 2°49.418 238.2 10.6 242 35.3
2009-02-27 14:45:10 51°32.268 2°49.17 238.9 10.5 242 36.4
2009-02-27 14:46:10 51°32.181 2°48.933 237.3 10.3 232 34.7
2009-02-27 14:47:11 51°32.094 2°48.69 239.3 10.3 234 32.4
2009-02-27 14:48:10 51°32.013 2°48.455 238.9 10.5 240 35.5
2009-02-27 14:49:10 51°31.929 2°48.214 237 10.3 240 34.3
2009-02-27 14:50:10 51°31.84 2°47.977 237.9 10.5 241 34.9
2009-02-27 14:51:10 51°31.755 2°47.737 239.3 10.4 239 35
2009-02-27 14:52:10 51°31.671 2°47.497 239.1 10.2 243 33.6
2009-02-27 14:53:10 51°31.588 2°47.258 237.4 10.3 241 31.9
2009-02-27 14:54:10 51°31.5 2°47.025 237 10.2 240 31.6
2009-02-27 14:55:10 51°31.413 2°46.788 238.3 10.5 243 31
2009-02-27 14:56:10 51°31.327 2°46.55 238.4 10.3 236 29.5
2009-02-27 14:57:10 51°31.243 2°46.313 236.8 10.2 242 36.3
2009-02-27 14:58:10 51°31.158 2°46.074 238 10.3 241 33.7
2009-02-27 14:59:10 51°31.071 2°45.836 237.7 10.3 241 34.2
2009-02-27 15:00:10 51°30.981 2°45.603 235 10.4 241 31.6
2009-02-27 15:01:10 51°30.892 2°45.367 238.2 10.3 236 36.1
2009-02-27 15:02:10 51°30.804 2°45.13 237.6 10.3 240 37.5
2009-02-27 15:03:10 51°30.714 2°44.893 236.3 10.5 239 37.4
2009-02-27 15:04:10 51°30.627 2°44.656 236.8 10.2 239 35.4
2009-02-27 15:05:10 51°30.537 2°44.423 235.9 10.3 237 36.2
2009-02-27 15:06:10 51°30.444 2°44.191 233.9 10.3 240 35.2
2009-02-27 15:07:10 51°30.351 2°43.963 235.3 10.2 236 35.7
2009-02-27 15:08:10 51°30.26 2°43.733 235.5 10.2 238 35.9
2009-02-27 15:09:10 51°30.174 2°43.499 237.6 10.2 241 33.9
2009-02-27 15:10:10 51°30.086 2°43.267 236.5 10.2 235 31.8
2009-02-27 15:11:10 51°29.999 2°43.033 236.3 10.3 243 33.1
2009-02-27 15:12:10 51°29.912 2°42.801 236.4 10.1 238 35.1
2009-02-27 15:13:10 51°29.822 2°42.568 235.4 10.3 240 38.4
2009-02-27 15:14:10 51°29.735 2°42.335 235.9 10.3 241 36.9
2009-02-27 15:15:10 51°29.645 2°42.107 234.7 10.2 236 33.7
2009-02-27 15:16:10 51°29.556 2°41.88 237.1 10 238 36.4
2009-02-27 15:17:10 51°29.47 2°41.647 235.9 10 240 35.5
2009-02-27 15:18:10 51°29.383 2°41.417 237.4 10.1 234 36.9
2009-02-27 15:19:10 51°29.297 2°41.187 235.2 10.1 242 36.3
2009-02-27 15:20:10 51°29.21 2°40.959 234.8 10 241 35.9
2009-02-27 15:21:10 51°29.124 2°40.728 235.3 10.1 236 35.5
2009-02-27 15:22:10 51°29.036 2°40.499 235.6 10.2 238 35.7
2009-02-27 15:23:10 51°28.948 2°40.268 236.2 10.1 240 37.2
2009-02-27 15:24:10 51°28.862 2°40.032 236.4 10.2 236 38.3
2009-02-27 15:25:10 51°28.772 2°39.8 235 10.2 243 37.2
2009-02-27 15:26:10 51°28.685 2°39.565 236.4 10.2 239 39
2009-02-27 15:27:11 51°28.565 2°39.393 201.8 9.8 190 39.7
2009-02-27 15:28:10 51°28.394 2°39.421 177.6 10.9 169 37.1
2009-02-27 15:29:10 51°28.216 2°39.482 176.2 10.9 170 37.2
2009-02-27 15:30:10 51°28.039 2°39.537 177.3 10.7 168 36.7
2009-02-27 15:31:11 51°27.862 2°39.611 169.9 10.9 162 35.4
2009-02-27 15:32:11 51°27.695 2°39.734 162.1 11.1 153 34.6
2009-02-27 15:33:10 51°27.533 2°39.873 160.6 11.1 152 35.2
2009-02-27 15:34:12 51°27.362 2°40.021 161.3 11.4 150 36.3
2009-02-27 15:35:10 51°27.201 2°40.158 162.9 11.5 153 35.8
2009-02-27 15:36:10 51°27.035 2°40.307 160.5 11.3 151 34.1
2009-02-27 15:37:10 51°26.868 2°40.455 160.8 11.3 151 34.2
2009-02-27 15:38:10 51°26.701 2°40.598 162.6 11.6 152 33.2
2009-02-27 15:39:10 51°26.532 2°40.736 162.7 11.5 154 32.9
2009-02-27 15:40:10 51°26.363 2°40.876 162.2 11.6 151 32.9
2009-02-27 15:41:10 51°26.193 2°41.014 163.5 11.4 153 32.6
2009-02-27 15:42:10 51°26.021 2°41.142 161.2 11.1 158 30.9
2009-02-27 15:43:12 51°25.845 2°41.283 161.8 11.6 149 27.6
2009-02-27 15:44:10 51°25.681 2°41.421 160.5 11.7 149 30.6
2009-02-27 15:45:10 51°25.514 2°41.564 158.3 11.5 152 28.5
2009-02-27 15:46:10 51°25.347 2°41.709 158.4 11.6 150 28.7
2009-02-27 15:47:10 51°25.185 2°41.872 151 11.7 142 28.8
2009-02-27 15:48:10 51°25.035 2°42.069 148.9 11.4 144 26
2009-02-27 15:49:11 51°24.883 2°42.271 148.9 11.6 140 25.7
2009-02-27 15:50:10 51°24.734 2°42.465 148.8 11.5 143 26.3
2009-02-27 15:51:10 51°24.579 2°42.655 151.4 11.9 146 26.3
2009-02-27 15:52:10 51°24.423 2°42.843 150.3 11.6 145 20.7
2009-02-27 15:53:10 51°24.267 2°43.035 151.9 12.2 139 22.6
2009-02-27 15:54:11 51°24.11 2°43.237 149.5 11.7 144 26
2009-02-27 15:55:10 51°23.956 2°43.43 149 12 142 27.7
2009-02-27 15:56:10 51°23.798 2°43.62 149.6 11.9 144 28.5
2009-02-27 15:57:10 51°23.639 2°43.811 152.7 11.8 148 28.4
2009-02-27 15:58:10 51°23.47 2°43.967 157.4 11.7 153 29.3
2009-02-27 15:59:10 51°23.296 2°44.115 157.4 11.9 152 28.4
2009-02-27 16:00:10 51°23.124 2°44.266 158.3 11.6 155 28.1
2009-02-27 16:01:11 51°22.944 2°44.39 163 11.5 161 28.4
2009-02-27 16:02:10 51°22.769 2°44.509 161.3 11.6 160 27.8
2009-02-27 16:03:10 51°22.591 2°44.628 162 11.5 157 28.9
2009-02-27 16:04:10 51°22.412 2°44.744 163.9 11.8 158 27.5
2009-02-27 16:05:11 51°22.233 2°44.868 161.4 11.4 158 26.3
2009-02-27 16:06:10 51°22.059 2°44.988 161 11.6 157 25.1
2009-02-27 16:07:10 51°21.882 2°45.11 162.7 11.5 156 24.6
2009-02-27 16:08:11 51°21.702 2°45.233 162.4 11.4 156 24.9
2009-02-27 16:09:10 51°21.527 2°45.347 161.9 11.5 158 26.4
2009-02-27 16:10:11 51°21.347 2°45.467 161.2 11.5 160 27.9
2009-02-27 16:11:10 51°21.174 2°45.591 161.8 11.4 156 28.4
2009-02-27 16:12:10 51°20.999 2°45.713 161.5 11.5 156 27.5
2009-02-27 16:13:10 51°20.821 2°45.833 162 11.7 157 27.3
2009-02-27 16:14:11 51°20.639 2°45.956 162.9 11.4 159 25
2009-02-27 16:15:10 51°20.466 2°46.093 156.7 12 150 22.7
2009-02-27 16:16:10 51°20.296 2°46.249 154.7 11.9 149 17.8
2009-02-27 16:17:10 51°20.126 2°46.406 154.7 11.9 149 17.5
2009-02-27 16:18:10 51°19.957 2°46.562 154 11.7 152 18.4
2009-02-27 16:19:11 51°19.781 2°46.705 156.6 11.8 153 19.9
2009-02-27 16:20:10 51°19.611 2°46.856 154.7 11.9 147 22.8
2009-02-27 16:21:11 51°19.439 2°47.009 156.1 11.4 153 23.4
2009-02-27 16:22:10 51°19.274 2°47.165 152.1 11.7 147 23.2
2009-02-27 16:23:10 51°19.107 2°47.333 151.9 11.9 148 22.2
2009-02-27 16:24:11 51°18.938 2°47.504 150.5 11.5 149 20.6
2009-02-27 16:25:11 51°18.774 2°47.675 151.6 11.6 148 18.4
2009-02-27 16:26:11 51°18.607 2°47.835 152.4 11.6 150 16.6
2009-02-27 16:27:10 51°18.442 2°47.993 153 11.8 151 15
2009-02-27 16:28:10 51°18.275 2°48.152 151.2 11.7 148 12.9
2009-02-27 16:29:10 51°18.108 2°48.309 151.4 11.7 151 12
2009-02-27 16:30:11 51°17.938 2°48.465 152 11.8 149 11.6
2009-02-27 16:31:11 51°17.77 2°48.622 151.8 11.8 149 11.4
2009-02-27 16:32:10 51°17.605 2°48.774 151.5 11.5 150 12.6
2009-02-27 16:33:10 51°17.436 2°48.934 153.8 11.8 151 13.4
2009-02-27 16:34:10 51°17.265 2°49.084 153.4 11.7 153 13.2
2009-02-27 16:35:11 51°17.097 2°49.248 151.8 11.7 146 12.9
2009-02-27 16:36:10 51°16.934 2°49.408 152.5 11.6 151 11.4
2009-02-27 16:37:11 51°16.766 2°49.569 152.7 12 149 12
2009-02-27 16:38:10 51°16.6 2°49.73 151.6 12 147 15.7
2009-02-27 16:39:11 51°16.424 2°49.888 153.4 12.1 150 12.7
2009-02-27 16:40:11 51°16.253 2°50.045 151.1 11.8 150 12.3
2009-02-27 16:41:11 51°16.1 2°50.237 132.9 12 127 11.5
2009-02-27 16:42:11 51°16.017 2°50.526 112.5 12.2 105 12.1
2009-02-27 16:43:12 51°15.95 2°50.843 111.9 12.2 110 14.2
2009-02-27 16:44:11 51°15.88 2°51.149 115.2 12.6 107 14.3
2009-02-27 16:45:11 51°15.807 2°51.456 113.6 12.2 111 14.2
2009-02-27 16:46:11 51°15.737 2°51.763 111.9 12.3 111 13.8
2009-02-27 16:47:10 51°15.657 2°52.057 115.6 12.3 113 13.5
2009-02-27 16:48:11 51°15.566 2°52.357 120 12.1 118 13
2009-02-27 16:49:10 51°15.465 2°52.629 123.1 11.9 125 12.6
2009-02-27 16:50:11 51°15.35 2°52.898 125.8 12.1 124 12
2009-02-27 16:51:11 51°15.235 2°53.159 125.7 11.9 127 11.7
2009-02-27 16:52:10 51°15.117 2°53.408 126.7 11.9 126 11.2
2009-02-27 16:53:11 51°14.998 2°53.672 126.3 12 127 11.1
2009-02-27 16:54:10 51°14.885 2°53.923 123.9 12 126 10.9
2009-02-27 16:55:11 51°14.777 2°54.195 126 12.1 121 11
2009-02-27 16:56:10 51°14.665 2°54.45 127.7 11.7 128 11.5
2009-02-27 16:57:11 51°14.544 2°54.704 127.7 11.8 129 11.4
2009-02-27 16:58:11 51°14.421 2°54.942 126.5 11.5 128 11.7
2009-02-27 16:59:10 51°14.306 2°55.176 128.1 10.8 128 11.2
2009-02-27 17:00:11 51°14.189 2°55.35 144.9 8.6 147 11
2009-02-27 17:01:10 51°14.069 2°55.452 153.5 8.4 155 10.8
2009-02-27 17:02:11 51°13.941 2°55.547 155.6 7.8 154 10.8
2009-02-27 17:03:10 51°13.833 2°55.629 155 7 154 10.7
2009-02-27 17:04:11 51°13.748 2°55.73 134.5 5.7 132 11.2
2009-02-27 17:05:10 51°13.69 2°55.844 127.7 5.1 126 9.6
2009-02-27 17:06:11 51°13.666 2°55.94 102.3 2.3 100 7.9
2009-02-27 17:07:11 51°13.663 2°55.957 117.9 0.4 108 6.6
2009-02-27 17:08:10 51°13.663 2°55.959 125.1 0.1 318 6.8
2009-02-27 17:09:11 51°13.663 2°55.958 130.1 0.1 287 -999
2009-02-27 17:10:10 51°13.663 2°55.959 128.6 -999 281 6.7